createdAt,value
2023-03-22T00:00:02.266Z,20.30
2023-03-22T00:00:35.466Z,20.07
2023-03-22T00:01:13.890Z,20.03
2023-03-22T00:01:46.307Z,20.77
2023-03-22T00:02:18.039Z,20.30
2023-03-22T00:02:49.739Z,19.57
2023-03-22T00:03:22.832Z,19.87
2023-03-22T00:03:54.745Z,18.67
2023-03-22T00:04:26.445Z,18.23
2023-03-22T00:04:58.092Z,19.07
2023-03-22T00:05:30.605Z,19.17
2023-03-22T00:06:02.412Z,18.93
2023-03-22T00:06:34.119Z,19.00
2023-03-22T00:07:05.873Z,18.70
2023-03-22T00:07:37.779Z,19.10
2023-03-22T00:08:11.085Z,18.73
2023-03-22T00:08:43.960Z,19.60
2023-03-22T00:09:15.768Z,18.97
2023-03-22T00:09:47.435Z,18.60
2023-03-22T00:10:19.075Z,19.67
2023-03-22T00:10:51.039Z,19.13
2023-03-22T00:11:25.764Z,19.13
2023-03-22T00:11:57.513Z,19.77
2023-03-22T00:12:29.166Z,19.83
2023-03-22T00:13:01.102Z,20.03
2023-03-22T00:13:35.717Z,20.00
2023-03-22T00:14:07.428Z,19.70
2023-03-22T00:14:39.251Z,19.97
2023-03-22T00:15:11.372Z,19.17
2023-03-22T00:15:45.549Z,19.17
2023-03-22T00:16:17.613Z,18.97
2023-03-22T00:16:49.494Z,18.50
2023-03-22T00:17:23.065Z,19.93
2023-03-22T00:17:55.579Z,19.30
2023-03-22T00:18:27.317Z,18.90
2023-03-22T00:18:58.991Z,19.03
2023-03-22T00:19:34.004Z,18.90
2023-03-22T00:20:07.194Z,18.80
2023-03-22T00:20:40.334Z,18.67
2023-03-22T00:21:14.934Z,18.07
2023-03-22T00:21:46.612Z,18.37
2023-03-22T00:22:18.331Z,19.47
2023-03-22T00:22:50.957Z,18.80
2023-03-22T00:23:23.641Z,18.57
2023-03-22T00:23:55.327Z,18.67
2023-03-22T00:24:27.011Z,19.17
2023-03-22T00:24:59.287Z,19.70
2023-03-22T00:25:31.171Z,19.83
2023-03-22T00:26:02.852Z,19.43
2023-03-22T00:26:34.547Z,18.43
2023-03-22T00:27:06.252Z,18.30
2023-03-22T00:27:38.549Z,19.13
2023-03-22T00:28:10.420Z,21.00
2023-03-22T00:28:42.764Z,24.00
2023-03-22T00:29:14.464Z,27.93
2023-03-22T00:29:46.108Z,25.93
2023-03-22T00:30:18.256Z,23.97
2023-03-22T00:31:00.965Z,21.30
2023-03-22T00:31:32.757Z,20.87
2023-03-22T00:32:04.529Z,19.50
2023-03-22T00:32:40.204Z,18.87
2023-03-22T00:33:11.859Z,19.33
2023-03-22T00:33:43.528Z,20.13
2023-03-22T00:34:15.398Z,20.13
2023-03-22T00:34:47.166Z,19.30
2023-03-22T00:35:18.927Z,19.33
2023-03-22T00:35:57.434Z,19.63
2023-03-22T00:36:29.111Z,20.17
2023-03-22T00:37:00.815Z,20.47
2023-03-22T00:37:34.071Z,19.70
2023-03-22T00:38:14.215Z,19.80
2023-03-22T00:38:46.050Z,18.57
2023-03-22T00:39:17.724Z,18.80
2023-03-22T00:39:49.359Z,19.47
2023-03-22T00:40:21.166Z,19.17
2023-03-22T00:40:52.798Z,19.57
2023-03-22T00:41:24.616Z,19.77
2023-03-22T00:41:56.301Z,20.33
2023-03-22T00:42:27.922Z,19.53
2023-03-22T00:42:59.886Z,19.53
2023-03-22T00:43:31.550Z,19.17
2023-03-22T00:44:03.244Z,19.47
2023-03-22T00:44:34.926Z,19.43
2023-03-22T00:45:08.604Z,18.90
2023-03-22T00:45:41.052Z,17.50
2023-03-22T00:46:14.477Z,18.13
2023-03-22T00:46:46.240Z,18.40
2023-03-22T00:47:18.038Z,18.93
2023-03-22T00:47:49.699Z,18.67
2023-03-22T00:48:22.678Z,18.17
2023-03-22T00:48:54.402Z,17.73
2023-03-22T00:49:27.235Z,18.13
2023-03-22T00:49:59.583Z,18.70
2023-03-22T00:50:31.281Z,18.97
2023-03-22T00:51:03.928Z,19.30
2023-03-22T00:51:35.604Z,18.80
2023-03-22T00:52:07.232Z,18.10
2023-03-22T00:52:38.892Z,17.87
2023-03-22T00:53:10.665Z,17.53
2023-03-22T00:53:43.519Z,17.73
2023-03-22T00:54:17.062Z,18.33
2023-03-22T00:54:48.798Z,18.20
2023-03-22T00:55:20.433Z,18.23
2023-03-22T00:55:52.093Z,18.17
2023-03-22T00:56:25.509Z,18.30
2023-03-22T00:56:57.207Z,18.93
2023-03-22T00:57:28.935Z,17.83
2023-03-22T00:58:00.616Z,18.40
2023-03-22T00:58:32.870Z,18.20
2023-03-22T00:59:05.537Z,18.23
2023-03-22T00:59:38.733Z,19.00
2023-03-22T01:00:13.576Z,21.30
2023-03-22T01:00:45.617Z,24.60
2023-03-22T01:01:17.354Z,27.70
2023-03-22T01:01:49.078Z,27.63
2023-03-22T01:02:20.749Z,26.77
2023-03-22T01:03:04.133Z,26.87
2023-03-22T01:03:35.937Z,26.50
2023-03-22T01:04:07.651Z,28.47
2023-03-22T01:04:46.967Z,28.37
2023-03-22T01:05:22.101Z,27.10
2023-03-22T01:05:57.165Z,24.90
2023-03-22T01:06:28.833Z,25.10
2023-03-22T01:07:01.995Z,25.67
2023-03-22T01:07:33.670Z,26.07
2023-03-22T01:08:08.562Z,25.37
2023-03-22T01:08:40.307Z,23.70
2023-03-22T01:09:14.877Z,24.37
2023-03-22T01:09:47.338Z,23.60
2023-03-22T01:10:19.539Z,23.83
2023-03-22T01:10:51.941Z,21.83
2023-03-22T01:11:23.932Z,21.57
2023-03-22T01:11:59.138Z,22.93
2023-03-22T01:12:31.092Z,21.83
2023-03-22T01:13:03.503Z,20.93
2023-03-22T01:13:41.795Z,19.63
2023-03-22T01:14:13.929Z,20.03
2023-03-22T01:14:46.175Z,19.43
2023-03-22T01:15:17.936Z,18.43
2023-03-22T01:15:52.585Z,17.17
2023-03-22T01:16:24.261Z,18.37
2023-03-22T01:16:57.640Z,18.97
2023-03-22T01:17:29.416Z,18.80
2023-03-22T01:18:01.768Z,19.07
2023-03-22T01:18:34.304Z,18.33
2023-03-22T01:19:06.580Z,17.90
2023-03-22T01:19:38.699Z,19.17
2023-03-22T01:20:11.229Z,18.57
2023-03-22T01:20:42.890Z,17.97
2023-03-22T01:21:14.535Z,18.73
2023-03-22T01:21:46.259Z,18.23
2023-03-22T01:22:17.903Z,18.83
2023-03-22T01:22:49.560Z,18.63
2023-03-22T01:23:21.264Z,18.03
2023-03-22T01:23:52.911Z,17.70
2023-03-22T01:24:24.677Z,18.07
2023-03-22T01:24:56.993Z,19.37
2023-03-22T01:25:28.687Z,18.60
2023-03-22T01:26:01.455Z,17.33
2023-03-22T01:26:33.331Z,17.83
2023-03-22T01:27:04.970Z,17.77
2023-03-22T01:27:36.953Z,17.87
2023-03-22T01:28:08.798Z,17.70
2023-03-22T01:28:40.702Z,18.07
2023-03-22T01:29:12.688Z,17.93
2023-03-22T01:29:44.371Z,18.43
2023-03-22T01:30:16.085Z,19.57
2023-03-22T01:30:47.777Z,18.47
2023-03-22T01:31:19.466Z,18.93
2023-03-22T01:31:51.294Z,18.93
2023-03-22T01:32:23.376Z,19.17
2023-03-22T01:32:55.062Z,18.13
2023-03-22T01:33:26.706Z,18.27
2023-03-22T01:33:58.346Z,17.87
2023-03-22T01:34:31.071Z,18.10
2023-03-22T01:35:03.498Z,18.27
2023-03-22T01:35:36.586Z,17.67
2023-03-22T01:36:08.542Z,18.33
2023-03-22T01:36:40.330Z,17.47
2023-03-22T01:37:11.998Z,17.63
2023-03-22T01:37:43.701Z,17.90
2023-03-22T01:38:15.382Z,17.93
2023-03-22T01:38:47.066Z,17.97
2023-03-22T01:39:18.866Z,18.53
2023-03-22T01:39:50.605Z,17.27
2023-03-22T01:40:22.316Z,18.60
2023-03-22T01:40:53.978Z,18.20
2023-03-22T01:41:26.164Z,17.63
2023-03-22T01:41:57.816Z,17.90
2023-03-22T01:42:29.680Z,17.90
2023-03-22T01:43:01.354Z,17.10
2023-03-22T01:43:33.010Z,18.17
2023-03-22T01:44:17.097Z,18.60
2023-03-22T01:45:13.652Z,17.20
2023-03-22T01:45:49.613Z,16.93
2023-03-22T01:46:21.382Z,17.50
2023-03-22T01:46:53.078Z,17.03
2023-03-22T01:47:24.712Z,17.47
2023-03-22T01:48:01.851Z,17.40
2023-03-22T01:48:42.023Z,17.87
2023-03-22T01:49:19.879Z,18.37
2023-03-22T01:49:51.608Z,17.60
2023-03-22T01:50:25.894Z,18.73
2023-03-22T01:51:16.215Z,18.73
2023-03-22T01:51:51.406Z,17.57
2023-03-22T01:52:23.110Z,17.83
2023-03-22T01:52:57.560Z,17.93
2023-03-22T01:53:35.034Z,17.57
2023-03-22T01:54:23.853Z,18.30
2023-03-22T01:54:57.058Z,17.97
2023-03-22T01:55:28.859Z,18.23
2023-03-22T01:56:01.880Z,17.87
2023-03-22T01:56:39.797Z,18.40
2023-03-22T01:57:12.216Z,18.63
2023-03-22T01:57:44.884Z,18.73
2023-03-22T01:58:18.249Z,17.67
2023-03-22T01:58:52.584Z,17.57
2023-03-22T01:59:25.175Z,17.23
2023-03-22T01:59:57.540Z,18.30
2023-03-22T02:00:29.538Z,18.00
2023-03-22T02:01:01.350Z,17.43
2023-03-22T02:01:35.018Z,16.40
2023-03-22T02:02:07.417Z,17.50
2023-03-22T02:02:39.426Z,18.13
2023-03-22T02:03:15.412Z,17.80
2023-03-22T02:04:15.605Z,18.20
2023-03-22T02:04:50.941Z,17.87
2023-03-22T02:05:23.003Z,18.07
2023-03-22T02:05:55.617Z,17.97
2023-03-22T02:06:29.974Z,18.17
2023-03-22T02:07:10.286Z,19.20
2023-03-22T02:07:43.583Z,18.30
2023-03-22T02:08:15.587Z,18.20
2023-03-22T02:08:48.160Z,17.70
2023-03-22T02:09:22.137Z,17.53
2023-03-22T02:09:54.540Z,18.13
2023-03-22T02:10:27.709Z,19.13
2023-03-22T02:11:01.833Z,19.53
2023-03-22T02:11:49.211Z,18.50
2023-03-22T02:12:49.570Z,18.30
2023-03-22T02:14:09.771Z,18.00
2023-03-22T02:15:01.660Z,18.03
2023-03-22T02:15:43.549Z,17.43
2023-03-22T02:16:53.520Z,18.53
2023-03-22T02:17:51.375Z,19.40
2023-03-22T02:18:38.677Z,18.83
2023-03-22T02:19:35.147Z,17.47
2023-03-22T02:20:24.654Z,18.10
2023-03-22T02:21:33.947Z,17.97
2023-03-22T02:22:50.064Z,17.23
2023-03-22T02:23:50.772Z,18.13
2023-03-22T02:24:45.867Z,17.90
2023-03-22T02:25:42.231Z,17.93
2023-03-22T02:26:32.334Z,17.67
2023-03-22T02:27:22.636Z,17.00
2023-03-22T02:28:03.210Z,18.40
2023-03-22T02:28:34.828Z,18.60
2023-03-22T02:29:38.201Z,18.10
2023-03-22T02:30:21.689Z,17.33
2023-03-22T02:31:27.268Z,17.97
2023-03-22T02:32:10.876Z,18.00
2023-03-22T02:33:11.009Z,18.30
2023-03-22T02:34:15.741Z,18.43
2023-03-22T02:35:03.598Z,18.80
2023-03-22T02:36:09.951Z,19.63
2023-03-22T02:37:02.784Z,19.90
2023-03-22T02:37:53.821Z,19.97
2023-03-22T02:38:57.823Z,19.83
2023-03-22T02:39:42.357Z,18.40
2023-03-22T02:40:41.933Z,19.37
2023-03-22T02:41:28.995Z,18.10
2023-03-22T02:42:12.844Z,19.93
2023-03-22T02:43:14.192Z,18.83
2023-03-22T02:44:21.131Z,19.13
2023-03-22T02:44:59.738Z,19.43
2023-03-22T02:45:45.350Z,20.83
2023-03-22T02:46:32.622Z,21.03
2023-03-22T02:47:04.356Z,21.50
2023-03-22T02:48:07.199Z,21.70
2023-03-22T02:48:50.815Z,21.80
2023-03-22T02:49:57.321Z,21.17
2023-03-22T02:50:35.402Z,21.37
2023-03-22T02:51:21.429Z,20.87
2023-03-22T02:52:10.241Z,21.17
2023-03-22T02:53:03.236Z,21.07
2023-03-22T02:54:04.726Z,19.50
2023-03-22T02:54:39.221Z,20.40
2023-03-22T02:55:24.103Z,20.13
2023-03-22T02:56:11.408Z,21.17
2023-03-22T02:56:51.250Z,22.00
2023-03-22T02:57:36.723Z,21.13
2023-03-22T02:58:23.967Z,21.53
2023-03-22T02:59:00.502Z,21.33
2023-03-22T02:59:38.359Z,21.00
2023-03-22T03:00:14.183Z,20.50
2023-03-22T03:00:51.154Z,20.90
2023-03-22T03:01:29.266Z,22.30
2023-03-22T03:02:03.852Z,22.50
2023-03-22T03:02:38.362Z,22.97
2023-03-22T03:03:18.439Z,22.23
2023-03-22T03:03:53.024Z,21.37
2023-03-22T03:04:35.962Z,22.47
2023-03-22T03:05:10.526Z,22.27
2023-03-22T03:05:47.041Z,22.13
2023-03-22T03:06:22.865Z,22.77
2023-03-22T03:07:00.871Z,22.00
2023-03-22T03:07:34.712Z,21.30
2023-03-22T03:08:10.234Z,22.03
2023-03-22T03:08:44.262Z,21.03
2023-03-22T03:09:19.339Z,20.80
2023-03-22T03:09:51.844Z,21.60
2023-03-22T03:10:24.497Z,21.57
2023-03-22T03:10:56.330Z,21.17
2023-03-22T03:11:28.033Z,20.27
2023-03-22T03:11:59.717Z,20.97
2023-03-22T03:12:31.682Z,19.17
2023-03-22T03:13:03.470Z,20.30
2023-03-22T03:13:35.248Z,20.03
2023-03-22T03:14:06.878Z,20.87
2023-03-22T03:14:38.515Z,21.63
2023-03-22T03:15:16.404Z,22.23
2023-03-22T03:15:59.314Z,21.07
2023-03-22T03:16:35.225Z,21.50
2023-03-22T03:17:20.412Z,20.53
2023-03-22T03:18:01.355Z,20.70
2023-03-22T03:18:46.636Z,22.00
2023-03-22T03:19:32.138Z,22.83
2023-03-22T03:20:42.636Z,21.77
2023-03-22T03:21:38.661Z,23.33
2023-03-22T03:22:53.644Z,23.00
2023-03-22T03:23:49.285Z,22.57
2023-03-22T03:24:46.037Z,23.67
2023-03-22T03:25:26.617Z,23.63
2023-03-22T03:26:33.402Z,23.97
2023-03-22T03:27:27.397Z,23.57
2023-03-22T03:28:17.125Z,23.13
2023-03-22T03:29:30.206Z,23.33
2023-03-22T03:30:30.784Z,22.43
2023-03-22T03:31:33.406Z,22.40
2023-03-22T03:32:15.537Z,22.63
2023-03-22T03:32:54.660Z,23.93
2023-03-22T03:33:29.345Z,23.07
2023-03-22T03:34:16.668Z,24.10
2023-03-22T03:34:55.664Z,22.77
2023-03-22T03:35:43.762Z,23.80
2023-03-22T03:36:18.335Z,30.10
2023-03-22T03:37:03.402Z,33.13
2023-03-22T03:37:47.141Z,28.80
2023-03-22T03:38:26.566Z,28.00
2023-03-22T03:39:00.741Z,28.27
2023-03-22T03:39:37.722Z,27.63
2023-03-22T03:40:22.964Z,27.03
2023-03-22T03:41:01.522Z,24.93
2023-03-22T03:41:34.748Z,24.30
2023-03-22T03:42:11.284Z,23.17
2023-03-22T03:42:53.067Z,23.37
2023-03-22T03:43:28.090Z,22.43
2023-03-22T03:44:00.632Z,23.33
2023-03-22T03:44:36.123Z,23.53
2023-03-22T03:45:09.050Z,23.87
2023-03-22T03:45:41.468Z,23.70
2023-03-22T03:46:14.450Z,23.63
2023-03-22T03:46:47.627Z,24.60
2023-03-22T03:47:20.976Z,23.07
2023-03-22T03:47:59.576Z,22.50
2023-03-22T03:48:34.962Z,22.63
2023-03-22T03:49:11.638Z,22.47
2023-03-22T03:49:43.312Z,23.10
2023-03-22T03:50:16.641Z,22.97
2023-03-22T03:50:52.364Z,23.57
2023-03-22T03:51:26.078Z,22.53
2023-03-22T03:52:00.082Z,22.30
2023-03-22T03:52:31.910Z,23.00
2023-03-22T03:53:03.771Z,23.83
2023-03-22T03:53:35.613Z,22.90
2023-03-22T03:54:07.361Z,23.00
2023-03-22T03:54:39.080Z,22.17
2023-03-22T03:55:10.821Z,22.60
2023-03-22T03:55:42.696Z,23.40
2023-03-22T03:56:14.389Z,23.97
2023-03-22T03:56:47.790Z,23.60
2023-03-22T03:57:19.502Z,22.67
2023-03-22T03:57:51.221Z,23.37
2023-03-22T03:58:23.451Z,23.50
2023-03-22T03:58:55.722Z,23.00
2023-03-22T03:59:27.577Z,23.47
2023-03-22T03:59:59.211Z,23.70
2023-03-22T04:00:31.136Z,23.33
2023-03-22T04:01:04.133Z,23.03
2023-03-22T04:01:36.421Z,22.67
2023-03-22T04:02:08.448Z,23.90
2023-03-22T04:02:41.291Z,23.33
2023-03-22T04:03:13.693Z,23.67
2023-03-22T04:03:46.571Z,22.70
2023-03-22T04:04:27.746Z,23.47
2023-03-22T04:04:59.522Z,22.43
2023-03-22T04:05:31.361Z,22.50
2023-03-22T04:06:03.816Z,22.70
2023-03-22T04:06:35.524Z,23.33
2023-03-22T04:07:07.347Z,23.53
2023-03-22T04:07:39.143Z,23.17
2023-03-22T04:08:10.911Z,22.07
2023-03-22T04:08:45.599Z,23.10
2023-03-22T04:09:17.570Z,23.70
2023-03-22T04:09:49.234Z,22.43
2023-03-22T04:10:20.878Z,22.77
2023-03-22T04:10:52.735Z,23.33
2023-03-22T04:11:24.404Z,23.37
2023-03-22T04:11:57.413Z,23.00
2023-03-22T04:12:29.221Z,23.17
2023-03-22T04:13:00.880Z,23.30
2023-03-22T04:13:32.593Z,22.57
2023-03-22T04:14:04.242Z,22.17
2023-03-22T04:14:36.380Z,22.70
2023-03-22T04:15:08.785Z,22.60
2023-03-22T04:15:40.457Z,24.13
2023-03-22T04:16:12.131Z,23.47
2023-03-22T04:16:43.900Z,23.07
2023-03-22T04:17:15.545Z,24.30
2023-03-22T04:17:47.188Z,24.37
2023-03-22T04:18:19.697Z,23.30
2023-03-22T04:18:51.591Z,23.80
2023-03-22T04:19:24.060Z,25.03
2023-03-22T04:19:59.379Z,25.60
2023-03-22T04:20:31.654Z,25.47
2023-03-22T04:21:03.796Z,25.33
2023-03-22T04:21:35.413Z,25.20
2023-03-22T04:22:07.050Z,25.07
2023-03-22T04:22:39.118Z,25.13
2023-03-22T04:23:11.084Z,24.43
2023-03-22T04:23:46.671Z,23.53
2023-03-22T04:24:18.653Z,24.17
2023-03-22T04:24:50.315Z,24.33
2023-03-22T04:25:22.880Z,24.17
2023-03-22T04:25:54.835Z,23.40
2023-03-22T04:26:26.917Z,23.10
2023-03-22T04:26:58.790Z,23.13
2023-03-22T04:27:30.452Z,22.90
2023-03-22T04:28:04.313Z,23.50
2023-03-22T04:28:35.976Z,22.90
2023-03-22T04:29:07.832Z,23.07
2023-03-22T04:29:39.460Z,23.70
2023-03-22T04:30:18.912Z,23.73
2023-03-22T04:30:52.420Z,24.77
2023-03-22T04:31:25.275Z,24.37
2023-03-22T04:31:56.914Z,23.93
2023-03-22T04:32:28.607Z,22.83
2023-03-22T04:33:01.343Z,22.97
2023-03-22T04:33:39.320Z,22.90
2023-03-22T04:34:10.988Z,22.70
2023-03-22T04:34:43.049Z,23.17
2023-03-22T04:35:15.820Z,21.93
2023-03-22T04:35:47.551Z,21.37
2023-03-22T04:36:19.765Z,22.93
2023-03-22T04:36:51.407Z,23.93
2023-03-22T04:37:27.030Z,23.03
2023-03-22T04:37:59.437Z,22.60
2023-03-22T04:38:31.148Z,23.10
2023-03-22T04:39:06.046Z,22.73
2023-03-22T04:39:37.805Z,23.33
2023-03-22T04:40:16.588Z,23.13
2023-03-22T04:40:48.289Z,22.90
2023-03-22T04:41:19.939Z,23.37
2023-03-22T04:41:51.582Z,22.87
2023-03-22T04:42:23.567Z,22.37
2023-03-22T04:42:58.960Z,22.87
2023-03-22T04:43:34.789Z,23.50
2023-03-22T04:44:07.709Z,22.60
2023-03-22T04:44:39.374Z,22.37
2023-03-22T04:45:12.474Z,22.63
2023-03-22T04:45:44.195Z,23.40
2023-03-22T04:46:15.949Z,22.73
2023-03-22T04:46:47.881Z,23.13
2023-03-22T04:47:19.550Z,23.33
2023-03-22T04:47:51.284Z,23.00
2023-03-22T04:48:23.641Z,23.67
2023-03-22T04:48:55.458Z,24.90
2023-03-22T04:49:27.160Z,23.90
2023-03-22T04:49:58.847Z,22.83
2023-03-22T04:50:30.522Z,24.00
2023-03-22T04:51:04.168Z,24.93
2023-03-22T04:51:35.929Z,24.97
2023-03-22T04:52:08.298Z,25.20
2023-03-22T04:52:39.971Z,25.53
2023-03-22T04:53:12.476Z,24.10
2023-03-22T04:53:44.166Z,25.03
2023-03-22T04:54:15.894Z,23.60
2023-03-22T04:54:47.547Z,23.30
2023-03-22T04:55:19.258Z,23.10
2023-03-22T04:55:50.918Z,23.53
2023-03-22T04:56:22.644Z,24.40
2023-03-22T04:56:54.324Z,22.60
2023-03-22T04:57:26.094Z,22.47
2023-03-22T04:57:57.792Z,23.17
2023-03-22T04:58:30.432Z,23.90
2023-03-22T04:59:02.143Z,22.80
2023-03-22T04:59:33.869Z,23.57
2023-03-22T05:00:08.550Z,23.67
2023-03-22T05:00:42.455Z,21.93
2023-03-22T05:01:16.241Z,22.70
2023-03-22T05:01:49.149Z,23.27
2023-03-22T05:02:20.924Z,22.83
2023-03-22T05:02:53.030Z,23.10
2023-03-22T05:03:25.024Z,23.17
2023-03-22T05:03:56.685Z,24.03
2023-03-22T05:04:28.622Z,26.40
2023-03-22T05:05:00.500Z,25.80
2023-03-22T05:05:32.195Z,24.53
2023-03-22T05:06:07.048Z,24.67
2023-03-22T05:06:38.744Z,24.40
2023-03-22T05:07:10.435Z,23.77
2023-03-22T05:07:42.065Z,22.60
2023-03-22T05:08:14.372Z,23.13
2023-03-22T05:08:46.010Z,23.37
2023-03-22T05:09:17.716Z,22.43
2023-03-22T05:09:49.394Z,22.43
2023-03-22T05:10:21.055Z,22.53
2023-03-22T05:10:57.649Z,23.07
2023-03-22T05:11:29.329Z,22.53
2023-03-22T05:12:01.043Z,23.30
2023-03-22T05:12:32.859Z,22.57
2023-03-22T05:13:04.550Z,23.23
2023-03-22T05:13:37.474Z,22.93
2023-03-22T05:14:09.708Z,23.00
2023-03-22T05:14:41.428Z,23.23
2023-03-22T05:15:13.684Z,23.70
2023-03-22T05:15:45.696Z,23.40
2023-03-22T05:16:17.501Z,21.93
2023-03-22T05:16:49.258Z,21.60
2023-03-22T05:17:21.187Z,22.00
2023-03-22T05:17:52.906Z,22.03
2023-03-22T05:18:27.746Z,22.63
2023-03-22T05:19:02.362Z,23.00
2023-03-22T05:19:34.140Z,22.43
2023-03-22T05:20:09.958Z,22.20
2023-03-22T05:20:44.469Z,22.10
2023-03-22T05:21:22.049Z,22.80
2023-03-22T05:21:58.322Z,21.37
2023-03-22T05:22:30.197Z,21.77
2023-03-22T05:23:02.740Z,23.17
2023-03-22T05:23:34.456Z,22.50
2023-03-22T05:24:06.338Z,21.70
2023-03-22T05:24:38.026Z,21.70
2023-03-22T05:25:10.656Z,22.87
2023-03-22T05:25:45.268Z,22.23
2023-03-22T05:26:18.248Z,21.27
2023-03-22T05:26:53.750Z,22.23
2023-03-22T05:27:31.697Z,22.03
2023-03-22T05:28:03.817Z,22.50
2023-03-22T05:28:35.887Z,22.60
2023-03-22T05:29:07.721Z,23.40
2023-03-22T05:29:44.906Z,22.47
2023-03-22T05:30:16.882Z,22.87
2023-03-22T05:30:49.674Z,22.27
2023-03-22T05:31:22.328Z,22.77
2023-03-22T05:31:54.235Z,23.50
2023-03-22T05:32:29.114Z,22.80
2023-03-22T05:33:03.859Z,22.17
2023-03-22T05:33:35.669Z,22.73
2023-03-22T05:34:08.190Z,22.40
2023-03-22T05:34:42.816Z,22.63
2023-03-22T05:35:14.496Z,23.30
2023-03-22T05:35:46.165Z,24.17
2023-03-22T05:36:23.069Z,23.47
2023-03-22T05:36:54.738Z,23.23
2023-03-22T05:37:26.396Z,23.50
2023-03-22T05:37:58.588Z,24.00
2023-03-22T05:38:30.276Z,23.43
2023-03-22T05:39:02.394Z,24.73
2023-03-22T05:39:34.063Z,24.40
2023-03-22T05:40:09.968Z,24.73
2023-03-22T05:40:41.956Z,22.77
2023-03-22T05:41:14.240Z,24.30
2023-03-22T05:41:46.728Z,24.13
2023-03-22T05:42:18.388Z,25.47
2023-03-22T05:42:50.427Z,25.17
2023-03-22T05:43:22.219Z,24.57
2023-03-22T05:43:53.935Z,24.63
2023-03-22T05:44:25.689Z,25.50
2023-03-22T05:44:57.472Z,23.60
2023-03-22T05:45:29.204Z,25.27
2023-03-22T05:46:01.044Z,25.50
2023-03-22T05:46:32.807Z,24.03
2023-03-22T05:47:06.937Z,23.90
2023-03-22T05:47:39.597Z,24.17
2023-03-22T05:48:11.658Z,24.57
2023-03-22T05:48:44.987Z,25.57
2023-03-22T05:49:16.640Z,24.33
2023-03-22T05:49:48.369Z,21.67
2023-03-22T05:50:22.885Z,24.57
2023-03-22T05:50:54.543Z,25.00
2023-03-22T05:51:27.400Z,24.87
2023-03-22T05:51:59.079Z,25.23
2023-03-22T05:52:30.920Z,23.40
2023-03-22T05:53:04.027Z,24.03
2023-03-22T05:53:36.171Z,24.63
2023-03-22T05:54:08.709Z,26.27
2023-03-22T05:54:40.638Z,26.60
2023-03-22T05:55:14.778Z,26.83
2023-03-22T05:55:46.717Z,25.97
2023-03-22T05:56:21.836Z,26.57
2023-03-22T05:56:55.727Z,25.17
2023-03-22T05:57:29.967Z,24.83
2023-03-22T05:58:02.860Z,25.33
2023-03-22T05:58:35.055Z,26.17
2023-03-22T05:59:07.050Z,25.93
2023-03-22T05:59:38.714Z,25.00
2023-03-22T06:00:13.874Z,24.47
2023-03-22T06:00:49.581Z,25.17
2023-03-22T06:01:21.544Z,25.97
2023-03-22T06:01:53.282Z,25.40
2023-03-22T06:02:26.350Z,24.40
2023-03-22T06:03:03.293Z,24.43
2023-03-22T06:03:35.264Z,24.97
2023-03-22T06:04:07.026Z,25.37
2023-03-22T06:04:41.599Z,25.47
2023-03-22T06:05:14.524Z,24.53
2023-03-22T06:05:46.667Z,24.90
2023-03-22T06:06:18.651Z,25.57
2023-03-22T06:06:50.529Z,25.53
2023-03-22T06:07:22.257Z,25.40
2023-03-22T06:07:53.914Z,24.37
2023-03-22T06:08:26.632Z,24.73
2023-03-22T06:09:14.138Z,25.30
2023-03-22T06:09:49.510Z,24.00
2023-03-22T06:10:21.325Z,24.23
2023-03-22T06:10:53.939Z,23.20
2023-03-22T06:11:25.617Z,21.97
2023-03-22T06:11:58.451Z,21.90
2023-03-22T06:12:30.545Z,23.00
2023-03-22T06:13:02.306Z,24.03
2023-03-22T06:13:34.070Z,24.90
2023-03-22T06:14:05.729Z,25.30
2023-03-22T06:14:37.463Z,25.03
2023-03-22T06:15:10.361Z,24.23
2023-03-22T06:15:41.997Z,26.33
2023-03-22T06:16:13.984Z,25.53
2023-03-22T06:16:45.907Z,19.47
2023-03-22T06:17:17.972Z,20.43
2023-03-22T06:17:49.631Z,22.53
2023-03-22T06:18:21.362Z,23.87
2023-03-22T06:18:53.035Z,23.77
2023-03-22T06:19:25.650Z,25.07
2023-03-22T06:19:57.322Z,25.23
2023-03-22T06:20:28.984Z,24.07
2023-03-22T06:21:00.977Z,23.47
2023-03-22T06:21:32.663Z,24.10
2023-03-22T06:22:04.400Z,23.60
2023-03-22T06:22:36.296Z,24.43
2023-03-22T06:23:07.964Z,24.47
2023-03-22T06:23:39.695Z,25.10
2023-03-22T06:24:11.628Z,25.13
2023-03-22T06:24:43.458Z,24.70
2023-03-22T06:25:15.665Z,24.97
2023-03-22T06:25:47.786Z,24.53
2023-03-22T06:26:19.426Z,25.03
2023-03-22T06:26:51.108Z,24.80
2023-03-22T06:27:22.973Z,25.13
2023-03-22T06:27:54.677Z,25.33
2023-03-22T06:28:29.832Z,23.97
2023-03-22T06:29:03.677Z,24.13
2023-03-22T06:29:36.177Z,24.00
2023-03-22T06:30:08.376Z,24.27
2023-03-22T06:30:40.518Z,24.30
2023-03-22T06:31:12.449Z,24.63
2023-03-22T06:31:44.158Z,25.13
2023-03-22T06:32:15.879Z,24.37
2023-03-22T06:32:47.563Z,24.53
2023-03-22T06:33:19.399Z,24.30
2023-03-22T06:33:51.068Z,24.83
2023-03-22T06:34:22.777Z,25.27
2023-03-22T06:34:55.496Z,25.20
2023-03-22T06:35:27.891Z,24.83
2023-03-22T06:36:00.892Z,24.03
2023-03-22T06:36:32.853Z,24.27
2023-03-22T06:37:04.713Z,24.60
2023-03-22T06:37:36.410Z,25.30
2023-03-22T06:38:08.134Z,26.37
2023-03-22T06:38:39.822Z,24.93
2023-03-22T06:39:11.498Z,23.93
2023-03-22T06:39:43.340Z,24.70
2023-03-22T06:40:15.452Z,24.87
2023-03-22T06:40:47.135Z,25.93
2023-03-22T06:41:18.869Z,25.63
2023-03-22T06:41:50.605Z,24.27
2023-03-22T06:42:22.376Z,24.07
2023-03-22T06:42:54.507Z,24.23
2023-03-22T06:43:26.398Z,24.43
2023-03-22T06:43:58.072Z,25.03
2023-03-22T06:44:29.872Z,24.33
2023-03-22T06:45:01.533Z,25.07
2023-03-22T06:45:33.610Z,26.30
2023-03-22T06:46:05.524Z,25.60
2023-03-22T06:46:37.290Z,25.97
2023-03-22T06:47:09.007Z,24.50
2023-03-22T06:47:40.835Z,25.17
2023-03-22T06:48:12.622Z,25.07
2023-03-22T06:48:44.448Z,25.20
2023-03-22T06:49:16.897Z,26.07
2023-03-22T06:49:48.535Z,26.60
2023-03-22T06:50:20.256Z,25.53
2023-03-22T06:50:51.984Z,24.67
2023-03-22T06:51:23.678Z,24.60
2023-03-22T06:51:55.401Z,24.50
2023-03-22T06:52:27.074Z,25.23
2023-03-22T06:52:58.704Z,25.33
2023-03-22T06:53:30.605Z,26.43
2023-03-22T06:54:02.321Z,26.17
2023-03-22T06:54:34.338Z,29.30
2023-03-22T06:55:06.285Z,30.20
2023-03-22T06:55:38.065Z,31.70
2023-03-22T06:56:09.939Z,30.13
2023-03-22T06:56:41.673Z,27.57
2023-03-22T06:57:13.378Z,26.30
2023-03-22T06:57:45.240Z,26.67
2023-03-22T06:58:16.900Z,25.50
2023-03-22T06:58:49.138Z,26.53
2023-03-22T06:59:21.096Z,26.87
2023-03-22T06:59:52.765Z,26.40
2023-03-22T07:00:24.725Z,25.17
2023-03-22T07:00:57.156Z,24.90
2023-03-22T07:01:28.937Z,24.77
2023-03-22T07:02:00.702Z,24.90
2023-03-22T07:02:32.372Z,25.23
2023-03-22T07:03:04.771Z,24.80
2023-03-22T07:03:36.680Z,25.50
2023-03-22T07:04:08.339Z,24.53
2023-03-22T07:04:40.056Z,24.80
2023-03-22T07:05:11.718Z,26.07
2023-03-22T07:05:43.531Z,26.40
2023-03-22T07:06:15.376Z,27.33
2023-03-22T07:06:47.283Z,26.43
2023-03-22T07:07:18.966Z,25.93
2023-03-22T07:07:50.783Z,24.87
2023-03-22T07:08:22.448Z,25.00
2023-03-22T07:08:54.198Z,24.83
2023-03-22T07:09:26.960Z,25.30
2023-03-22T07:09:58.853Z,24.10
2023-03-22T07:10:30.736Z,25.20
2023-03-22T07:11:02.876Z,25.80
2023-03-22T07:11:34.539Z,25.80
2023-03-22T07:12:07.116Z,25.40
2023-03-22T07:12:39.103Z,24.57
2023-03-22T07:13:10.926Z,24.30
2023-03-22T07:13:42.650Z,24.93
2023-03-22T07:14:14.330Z,25.33
2023-03-22T07:14:46.094Z,25.70
2023-03-22T07:15:17.780Z,24.73
2023-03-22T07:15:49.768Z,24.77
2023-03-22T07:16:22.157Z,25.40
2023-03-22T07:16:53.876Z,24.93
2023-03-22T07:17:25.537Z,24.77
2023-03-22T07:17:57.165Z,25.60
2023-03-22T07:18:30.498Z,24.97
2023-03-22T07:19:02.292Z,25.33
2023-03-22T07:19:34.041Z,25.60
2023-03-22T07:20:07.021Z,25.83
2023-03-22T07:20:41.520Z,25.13
2023-03-22T07:21:13.396Z,25.83
2023-03-22T07:21:45.041Z,27.53
2023-03-22T07:22:16.823Z,26.97
2023-03-22T07:22:50.910Z,27.67
2023-03-22T07:23:22.550Z,31.67
2023-03-22T07:23:55.252Z,33.03
2023-03-22T07:24:26.975Z,33.90
2023-03-22T07:25:01.282Z,38.23
2023-03-22T07:25:33.437Z,43.80
2023-03-22T07:26:06.049Z,45.90
2023-03-22T07:26:38.656Z,45.13
2023-03-22T07:27:10.393Z,45.30
2023-03-22T07:27:42.121Z,44.77
2023-03-22T07:28:14.453Z,44.27
2023-03-22T07:28:46.305Z,46.07